createdAt,value
2023-01-30T00:01:19.712Z,13.07
2023-01-30T00:03:49.269Z,16.00
2023-01-30T00:06:17.986Z,11.53
2023-01-30T00:08:46.459Z,13.60
2023-01-30T00:11:17.621Z,12.70
2023-01-30T00:13:46.287Z,12.80
2023-01-30T00:16:14.606Z,14.70
2023-01-30T00:18:44.249Z,12.57
2023-01-30T00:21:16.107Z,11.30
2023-01-30T00:23:45.394Z,14.13
2023-01-30T00:26:14.103Z,11.90
2023-01-30T00:28:42.320Z,13.13
2023-01-30T00:31:10.943Z,12.97
2023-01-30T00:33:40.139Z,12.13
2023-01-30T00:36:10.516Z,12.37
2023-01-30T00:38:40.303Z,11.30
2023-01-30T00:41:10.592Z,14.00
2023-01-30T00:44:04.745Z,11.20
2023-01-30T00:46:52.634Z,11.87
2023-01-30T00:49:21.320Z,13.53
2023-01-30T00:51:49.456Z,12.43
2023-01-30T00:54:18.915Z,12.20
2023-01-30T00:56:47.189Z,12.23
2023-01-30T00:59:15.496Z,12.47
2023-01-30T01:01:43.728Z,12.60
2023-01-30T01:04:12.229Z,13.73
2023-01-30T01:06:41.747Z,12.07
2023-01-30T01:09:10.275Z,13.23
2023-01-30T01:11:39.833Z,12.77
2023-01-30T01:14:08.746Z,12.70
2023-01-30T01:16:37.497Z,16.47
2023-01-30T01:19:06.314Z,12.93
2023-01-30T01:21:34.499Z,14.27
2023-01-30T01:24:02.683Z,13.47
2023-01-30T01:26:30.940Z,11.87
2023-01-30T01:29:01.001Z,15.37
2023-01-30T01:31:29.446Z,12.30
2023-01-30T01:33:58.421Z,12.87
2023-01-30T01:36:52.075Z,12.73
2023-01-30T01:39:14.754Z,13.50
2023-01-30T01:41:41.922Z,12.90
2023-01-30T01:44:13.606Z,13.23
2023-01-30T01:46:48.360Z,14.20
2023-01-30T01:49:23.859Z,12.60
2023-01-30T01:51:59.990Z,13.23
2023-01-30T01:54:37.440Z,13.40
2023-01-30T01:57:13.742Z,12.47
2023-01-30T01:59:49.909Z,11.97
2023-01-30T02:02:19.527Z,11.20
2023-01-30T02:05:06.503Z,12.77
2023-01-30T02:07:41.054Z,12.00
2023-01-30T02:10:14.880Z,11.20
2023-01-30T02:12:44.819Z,12.97
2023-01-30T02:15:14.534Z,11.20
2023-01-30T02:17:42.703Z,11.37
2023-01-30T02:20:27.264Z,11.67
2023-01-30T02:23:50.746Z,12.03
2023-01-30T02:26:54.183Z,12.33
2023-01-30T02:30:07.674Z,13.33
2023-01-30T02:32:50.697Z,12.90
2023-01-30T02:35:34.577Z,12.80
2023-01-30T02:38:20.943Z,12.70
2023-01-30T02:41:03.334Z,12.13
2023-01-30T02:43:45.541Z,11.40
2023-01-30T02:46:21.407Z,12.20
2023-01-30T02:48:58.901Z,11.00
2023-01-30T02:51:32.653Z,10.80
2023-01-30T02:54:01.362Z,10.97
2023-01-30T02:56:29.580Z,11.90
2023-01-30T02:59:02.705Z,10.10
2023-01-30T03:02:17.196Z,10.47
2023-01-30T03:05:22.676Z,9.53
2023-01-30T03:08:03.926Z,10.07
2023-01-30T03:10:42.400Z,9.47
2023-01-30T03:13:21.041Z,10.73
2023-01-30T03:15:56.441Z,10.43
2023-01-30T03:18:24.700Z,11.10
2023-01-30T03:20:54.734Z,11.63
2023-01-30T03:23:22.947Z,10.73
2023-01-30T03:25:51.168Z,11.13
2023-01-30T03:28:22.323Z,10.37
2023-01-30T03:30:50.571Z,9.40
2023-01-30T03:33:18.794Z,10.47
2023-01-30T03:35:46.977Z,8.60
2023-01-30T03:38:16.675Z,9.77
2023-01-30T03:40:44.974Z,8.63
2023-01-30T03:43:13.204Z,9.43
2023-01-30T03:45:41.253Z,9.37
2023-01-30T03:48:09.425Z,10.80
2023-01-30T03:50:37.659Z,10.87
2023-01-30T03:53:05.824Z,11.10
2023-01-30T03:55:35.265Z,11.53
2023-01-30T03:58:03.695Z,11.23
2023-01-30T04:00:31.885Z,9.67
2023-01-30T04:03:00.000Z,12.17
2023-01-30T04:05:28.129Z,10.50
2023-01-30T04:07:58.707Z,12.10
2023-01-30T04:10:27.940Z,9.93
2023-01-30T04:12:57.579Z,11.53
2023-01-30T04:15:25.762Z,10.83
2023-01-30T04:17:53.910Z,11.23
2023-01-30T04:20:22.049Z,11.23
2023-01-30T04:22:50.175Z,10.80
2023-01-30T04:25:18.603Z,11.87
2023-01-30T04:27:46.926Z,11.60
2023-01-30T04:30:17.061Z,11.30
2023-01-30T04:32:45.177Z,10.77
2023-01-30T04:35:13.508Z,12.13
2023-01-30T04:37:41.672Z,11.73
2023-01-30T04:40:11.939Z,11.50
2023-01-30T04:42:40.080Z,11.03
2023-01-30T04:45:09.717Z,12.43
2023-01-30T04:47:39.214Z,12.77
2023-01-30T04:50:08.927Z,11.80
2023-01-30T04:52:38.922Z,11.03
2023-01-30T04:55:08.880Z,12.10
2023-01-30T04:57:36.979Z,11.27
2023-01-30T05:00:06.967Z,12.93
2023-01-30T05:02:35.157Z,12.07
2023-01-30T05:05:04.847Z,11.60
2023-01-30T05:07:32.991Z,12.53
2023-01-30T05:10:02.785Z,12.33
2023-01-30T05:12:31.337Z,11.77
2023-01-30T05:14:59.462Z,12.83
2023-01-30T05:17:27.679Z,10.60
2023-01-30T05:19:55.804Z,11.33
2023-01-30T05:22:25.627Z,11.93
2023-01-30T05:24:53.841Z,11.20
2023-01-30T05:27:22.013Z,9.80
2023-01-30T05:29:50.142Z,11.40
2023-01-30T05:32:21.134Z,10.87
2023-01-30T05:34:50.451Z,11.60
2023-01-30T05:37:18.575Z,10.47
2023-01-30T05:39:48.057Z,9.93
2023-01-30T05:42:17.126Z,12.33
2023-01-30T05:44:45.973Z,10.77
2023-01-30T05:47:14.391Z,8.13
2023-01-30T05:49:43.041Z,10.40
2023-01-30T05:52:11.088Z,11.33
2023-01-30T05:54:39.141Z,11.23
2023-01-30T05:57:08.520Z,11.13
2023-01-30T05:59:36.565Z,11.03
2023-01-30T06:02:04.626Z,11.50
2023-01-30T06:04:32.648Z,10.50
2023-01-30T06:07:00.682Z,12.43
2023-01-30T06:09:28.742Z,10.47
2023-01-30T06:11:56.738Z,12.13
2023-01-30T06:14:26.125Z,12.30
2023-01-30T06:16:54.379Z,10.83
2023-01-30T06:19:22.490Z,11.53
2023-01-30T06:21:50.564Z,12.10
2023-01-30T06:24:18.648Z,12.10
2023-01-30T06:26:46.768Z,10.33
2023-01-30T06:29:15.170Z,11.40
2023-01-30T06:31:44.660Z,12.47
2023-01-30T06:34:13.059Z,14.30
2023-01-30T06:36:41.131Z,12.00
2023-01-30T06:39:09.370Z,9.50
2023-01-30T06:41:37.494Z,11.63
2023-01-30T06:44:06.099Z,10.13
2023-01-30T06:46:34.293Z,10.80
2023-01-30T06:49:03.801Z,11.97
2023-01-30T06:51:32.472Z,11.83
2023-01-30T06:54:00.617Z,10.97
2023-01-30T06:56:28.794Z,11.33
2023-01-30T06:58:56.917Z,11.10
2023-01-30T07:01:25.017Z,9.10
2023-01-30T07:03:53.123Z,10.10
2023-01-30T07:06:22.594Z,10.53
2023-01-30T07:08:50.661Z,8.83
2023-01-30T07:11:18.729Z,9.03
2023-01-30T07:13:46.830Z,9.37
2023-01-30T07:16:14.870Z,8.27
2023-01-30T07:18:42.920Z,9.43
2023-01-30T07:21:10.977Z,7.87
2023-01-30T07:23:40.361Z,9.10
2023-01-30T07:26:08.479Z,8.57
2023-01-30T07:28:36.590Z,8.20
2023-01-30T07:31:04.678Z,8.90
2023-01-30T07:33:32.735Z,9.67
2023-01-30T07:36:00.776Z,9.03
2023-01-30T07:38:28.851Z,9.33
2023-01-30T07:40:59.927Z,7.93
2023-01-30T07:43:28.021Z,8.67
2023-01-30T07:45:56.062Z,8.10
2023-01-30T07:48:24.110Z,8.07
2023-01-30T07:50:52.533Z,6.87
2023-01-30T07:53:20.571Z,8.13
2023-01-30T07:55:48.892Z,7.20
2023-01-30T07:58:18.356Z,6.47
2023-01-30T08:00:46.643Z,6.57
2023-01-30T08:03:16.651Z,7.60
2023-01-30T08:05:46.843Z,6.67
2023-01-30T08:08:15.241Z,5.43
2023-01-30T08:10:43.383Z,7.10
2023-01-30T08:13:11.491Z,5.50
2023-01-30T08:15:41.062Z,7.90
2023-01-30T08:18:09.161Z,6.63
2023-01-30T08:20:38.263Z,5.50
2023-01-30T08:23:06.476Z,5.77
2023-01-30T08:25:35.383Z,5.53
2023-01-30T08:28:04.775Z,5.20
2023-01-30T08:30:32.952Z,5.10
2023-01-30T08:33:02.592Z,5.87
2023-01-30T08:35:30.655Z,4.90
2023-01-30T08:37:59.875Z,5.20
2023-01-30T08:40:28.320Z,4.77
2023-01-30T08:42:56.956Z,4.43
2023-01-30T08:45:25.047Z,5.17
2023-01-30T08:47:53.100Z,3.83
2023-01-30T08:50:22.614Z,5.20
2023-01-30T08:52:50.654Z,5.27
2023-01-30T08:55:19.068Z,4.07
2023-01-30T08:57:47.188Z,4.40
2023-01-30T09:00:17.564Z,4.60
2023-01-30T09:02:48.569Z,5.10
2023-01-30T09:05:16.973Z,3.93
2023-01-30T09:07:46.500Z,5.23
2023-01-30T09:10:14.868Z,3.60
2023-01-30T09:12:42.876Z,4.37
2023-01-30T09:15:12.148Z,4.10
2023-01-30T09:17:40.242Z,3.73
2023-01-30T09:20:13.009Z,3.73
2023-01-30T09:22:41.140Z,3.30
2023-01-30T09:25:11.115Z,4.37
2023-01-30T09:27:39.142Z,4.53
2023-01-30T09:30:09.186Z,3.47
2023-01-30T09:32:37.492Z,3.73
2023-01-30T09:35:06.333Z,5.13
2023-01-30T09:37:34.375Z,3.90
2023-01-30T09:40:02.409Z,3.53
2023-01-30T09:43:05.135Z,3.83
2023-01-30T09:45:46.718Z,4.20
2023-01-30T09:48:27.953Z,4.30
2023-01-30T09:51:22.994Z,2.93
2023-01-30T09:54:17.929Z,3.63
2023-01-30T09:56:46.381Z,4.30
2023-01-30T09:59:28.906Z,4.27
2023-01-30T10:02:25.778Z,3.70
2023-01-30T10:05:01.884Z,3.23
2023-01-30T10:07:57.143Z,3.20
2023-01-30T10:10:50.988Z,3.70
2023-01-30T10:13:43.606Z,3.37
2023-01-30T10:16:22.658Z,3.40
2023-01-30T10:19:36.751Z,3.50
2023-01-30T10:22:22.562Z,3.03
2023-01-30T10:25:04.237Z,3.27
2023-01-30T10:27:34.408Z,3.43
2023-01-30T10:30:08.968Z,4.47
2023-01-30T10:32:48.250Z,2.90
2023-01-30T10:35:21.606Z,2.97
2023-01-30T10:37:59.490Z,4.60
2023-01-30T10:40:39.301Z,4.90
2023-01-30T10:43:20.522Z,3.80
2023-01-30T10:46:02.569Z,3.17
2023-01-30T10:48:55.352Z,3.27
2023-01-30T10:51:44.601Z,3.47
2023-01-30T10:54:22.245Z,4.77
2023-01-30T10:57:03.173Z,4.97
2023-01-30T10:59:46.536Z,4.23
2023-01-30T11:02:26.627Z,3.77
2023-01-30T11:05:03.744Z,4.73
2023-01-30T11:07:34.457Z,4.00
2023-01-30T11:10:02.584Z,3.50
2023-01-30T11:12:30.665Z,4.77
2023-01-30T11:15:01.279Z,4.83
2023-01-30T11:17:38.383Z,4.83
2023-01-30T11:20:16.014Z,4.00
2023-01-30T11:22:50.185Z,3.77
2023-01-30T11:25:22.554Z,4.83
2023-01-30T11:27:57.902Z,4.30
2023-01-30T11:30:31.063Z,3.10
2023-01-30T11:33:13.710Z,3.80
2023-01-30T11:35:56.897Z,3.20
2023-01-30T11:38:28.654Z,3.97
2023-01-30T11:41:19.106Z,4.40
2023-01-30T11:43:48.257Z,3.83
2023-01-30T11:46:20.998Z,5.23
2023-01-30T11:49:32.575Z,4.20
2023-01-30T11:51:48.565Z,3.63
2023-01-30T11:54:21.975Z,3.57
2023-01-30T11:56:56.237Z,3.87
2023-01-30T11:59:31.729Z,3.83
2023-01-30T12:02:17.443Z,4.07
2023-01-30T12:04:47.180Z,3.63
2023-01-30T12:07:24.651Z,4.80
2023-01-30T12:09:54.176Z,4.90
2023-01-30T12:12:35.345Z,4.10
2023-01-30T12:15:24.239Z,3.93
2023-01-30T12:18:04.530Z,3.87
2023-01-30T12:20:50.697Z,3.07
2023-01-30T12:23:31.163Z,3.80
2023-01-30T12:26:08.518Z,4.37
2023-01-30T12:28:48.430Z,3.87
2023-01-30T12:31:25.825Z,2.90
2023-01-30T12:33:55.219Z,5.07
2023-01-30T12:36:42.652Z,3.53
2023-01-30T12:39:40.846Z,5.27
2023-01-30T12:42:35.814Z,5.13
2023-01-30T12:45:21.242Z,4.57
2023-01-30T12:48:43.921Z,4.10
2023-01-30T12:51:36.878Z,3.20
2023-01-30T12:54:20.295Z,3.20
2023-01-30T12:57:10.136Z,4.20
2023-01-30T12:59:50.545Z,4.77
2023-01-30T13:02:48.496Z,3.27
2023-01-30T13:05:34.048Z,4.10
2023-01-30T13:08:22.787Z,2.93
2023-01-30T13:11:04.186Z,3.50
2023-01-30T13:13:43.010Z,2.67
2023-01-30T13:16:24.883Z,3.97
2023-01-30T13:18:59.765Z,3.77
2023-01-30T13:21:37.808Z,2.40
2023-01-30T13:24:27.069Z,2.07
2023-01-30T13:27:01.481Z,2.33
2023-01-30T13:29:38.908Z,3.77
2023-01-30T13:32:16.659Z,4.00
2023-01-30T13:34:49.360Z,4.00
2023-01-30T13:37:20.196Z,2.37
2023-01-30T13:39:53.881Z,3.07
2023-01-30T13:42:34.022Z,2.10
2023-01-30T13:45:06.013Z,5.50
2023-01-30T13:47:53.207Z,2.97
2023-01-30T13:50:56.562Z,2.50
2023-01-30T13:53:33.712Z,6.00
2023-01-30T13:56:39.633Z,3.13
2023-01-30T13:59:26.336Z,2.77
2023-01-30T14:02:21.600Z,2.77
2023-01-30T14:04:52.788Z,2.90
2023-01-30T14:07:29.497Z,5.43
2023-01-30T14:10:15.255Z,5.60
2023-01-30T14:12:47.725Z,2.57
2023-01-30T14:15:28.836Z,4.73
2023-01-30T14:18:07.204Z,5.53
2023-01-30T14:20:38.103Z,5.80
2023-01-30T14:23:20.155Z,2.53
2023-01-30T14:25:51.734Z,3.00
2023-01-30T14:28:50.888Z,3.23
2023-01-30T14:31:53.187Z,4.37
2023-01-30T14:34:42.134Z,4.70
2023-01-30T14:38:04.591Z,4.63
2023-01-30T14:40:47.614Z,5.10
2023-01-30T14:43:53.107Z,6.50
2023-01-30T14:46:55.101Z,2.33
2023-01-30T14:49:31.875Z,3.70
2023-01-30T14:52:03.416Z,4.50
2023-01-30T14:54:42.233Z,4.53
2023-01-30T14:57:32.552Z,2.20
2023-01-30T15:00:18.542Z,4.40
2023-01-30T15:02:54.300Z,6.07
2023-01-30T15:05:32.275Z,4.33
2023-01-30T15:08:09.449Z,3.60
2023-01-30T15:10:59.747Z,3.77
2023-01-30T15:13:43.860Z,3.40
2023-01-30T15:16:41.222Z,3.63
2023-01-30T15:19:38.739Z,3.93
2023-01-30T15:22:23.971Z,2.67
2023-01-30T15:25:34.700Z,4.70
2023-01-30T15:28:36.987Z,2.33
2023-01-30T15:31:12.520Z,3.80
2023-01-30T15:33:49.405Z,2.57
2023-01-30T15:36:38.702Z,2.70
2023-01-30T15:39:20.345Z,4.77
2023-01-30T15:41:52.495Z,4.10
2023-01-30T15:44:54.853Z,5.90
2023-01-30T15:47:48.281Z,5.70
2023-01-30T15:50:17.462Z,3.10
2023-01-30T15:52:49.824Z,5.57
2023-01-30T15:55:24.573Z,5.30
2023-01-30T15:57:59.135Z,3.70
2023-01-30T16:00:32.589Z,7.83
2023-01-30T16:03:05.903Z,5.17
2023-01-30T16:05:34.144Z,5.97
2023-01-30T16:08:21.033Z,6.33
2023-01-30T16:10:49.828Z,2.83
2023-01-30T16:13:21.032Z,5.27
2023-01-30T16:15:57.800Z,6.33
2023-01-30T16:18:34.442Z,6.20
2023-01-30T16:21:08.549Z,5.87
2023-01-30T16:23:41.866Z,5.83
2023-01-30T16:26:21.660Z,8.67
2023-01-30T16:28:59.507Z,4.97
2023-01-30T16:31:34.476Z,4.77
2023-01-30T16:34:03.016Z,4.80
2023-01-30T16:36:39.202Z,6.93
2023-01-30T16:39:31.132Z,6.67
2023-01-30T16:42:02.144Z,5.33
2023-01-30T16:44:33.237Z,5.00
2023-01-30T16:47:24.160Z,10.27
2023-01-30T16:49:54.305Z,7.87
2023-01-30T16:52:27.206Z,2.77
2023-01-30T16:54:59.605Z,5.77
2023-01-30T16:57:36.627Z,5.83
2023-01-30T17:00:24.317Z,5.23
2023-01-30T17:02:56.812Z,6.20
2023-01-30T17:05:28.505Z,4.77
2023-01-30T17:08:00.470Z,7.07
2023-01-30T17:11:03.524Z,4.47
2023-01-30T17:13:37.143Z,5.80
2023-01-30T17:16:35.182Z,5.23
2023-01-30T17:19:04.004Z,5.93
2023-01-30T17:21:44.151Z,6.47
2023-01-30T17:24:17.391Z,6.50
2023-01-30T17:26:48.031Z,5.07
2023-01-30T17:29:23.459Z,3.77
2023-01-30T17:32:11.159Z,6.80
2023-01-30T17:34:41.132Z,4.93
2023-01-30T17:37:16.790Z,3.97
2023-01-30T17:39:45.228Z,2.67
2023-01-30T17:42:15.245Z,6.40
2023-01-30T17:44:43.456Z,3.27
2023-01-30T17:47:13.482Z,5.93
2023-01-30T17:49:41.683Z,6.27
2023-01-30T17:52:10.064Z,6.47
2023-01-30T17:54:38.117Z,4.67
2023-01-30T17:57:09.675Z,3.97
2023-01-30T17:59:37.818Z,8.97
2023-01-30T18:02:11.661Z,5.77
2023-01-30T18:04:40.661Z,10.80
2023-01-30T18:07:14.216Z,6.20
2023-01-30T18:09:42.299Z,4.53
2023-01-30T18:12:10.404Z,5.83
2023-01-30T18:14:38.510Z,6.03
2023-01-30T18:17:06.747Z,7.17
2023-01-30T18:19:37.379Z,5.00
2023-01-30T18:22:05.463Z,7.83
2023-01-30T18:24:34.256Z,5.97
2023-01-30T18:27:02.372Z,6.17
2023-01-30T18:29:30.813Z,7.10
2023-01-30T18:32:04.862Z,10.07
2023-01-30T18:34:33.457Z,8.93
2023-01-30T18:37:03.213Z,11.10
2023-01-30T18:39:31.876Z,7.13
2023-01-30T18:42:01.993Z,7.47
2023-01-30T18:44:30.238Z,5.40
2023-01-30T18:46:58.583Z,6.53
2023-01-30T18:49:26.970Z,8.10
2023-01-30T18:51:55.055Z,6.63
2023-01-30T18:54:24.537Z,6.23
2023-01-30T18:56:52.664Z,5.47
2023-01-30T18:59:20.929Z,5.70
2023-01-30T19:01:48.986Z,5.63
2023-01-30T19:04:17.061Z,7.97
2023-01-30T19:06:45.540Z,5.13
2023-01-30T19:09:17.285Z,4.33
2023-01-30T19:12:04.185Z,4.83
2023-01-30T19:14:32.304Z,6.07
2023-01-30T19:17:00.417Z,9.90
2023-01-30T19:19:28.555Z,9.50
2023-01-30T19:21:56.662Z,5.77
2023-01-30T19:24:25.093Z,6.00
2023-01-30T19:26:54.739Z,7.07
2023-01-30T19:29:23.126Z,6.33
2023-01-30T19:31:51.265Z,6.67
2023-01-30T19:34:19.772Z,6.27
2023-01-30T19:36:48.109Z,4.57
2023-01-30T19:39:16.243Z,6.13
2023-01-30T19:41:44.453Z,5.73
2023-01-30T19:44:14.134Z,3.57
2023-01-30T19:46:43.094Z,6.07
2023-01-30T19:49:12.886Z,6.10
2023-01-30T19:51:41.739Z,6.07
2023-01-30T19:54:12.800Z,3.27
2023-01-30T19:56:41.914Z,7.77
2023-01-30T19:59:13.879Z,10.70
2023-01-30T20:01:41.993Z,6.57
2023-01-30T20:04:10.178Z,9.97
2023-01-30T20:06:39.244Z,6.27
2023-01-30T20:09:11.083Z,10.30
2023-01-30T20:11:41.938Z,9.50
2023-01-30T20:14:11.716Z,5.53
2023-01-30T20:16:41.726Z,6.17
2023-01-30T20:19:14.579Z,5.90
2023-01-30T20:21:43.625Z,6.60
2023-01-30T20:24:12.913Z,6.70
2023-01-30T20:26:41.253Z,7.33
2023-01-30T20:29:11.417Z,10.13
2023-01-30T20:31:41.009Z,7.13
2023-01-30T20:34:14.529Z,8.07
2023-01-30T20:36:42.745Z,6.20
2023-01-30T20:39:11.406Z,7.43
2023-01-30T20:41:39.807Z,7.60
2023-01-30T20:44:13.056Z,9.27
2023-01-30T20:46:45.728Z,10.23
2023-01-30T20:49:16.755Z,10.83
2023-01-30T20:51:46.156Z,7.63
2023-01-30T20:54:16.082Z,8.43
2023-01-30T20:56:46.938Z,7.80
2023-01-30T20:59:17.964Z,7.90
2023-01-30T21:01:47.768Z,6.20
2023-01-30T21:04:18.190Z,6.50
2023-01-30T21:06:47.329Z,4.83
2023-01-30T21:09:18.551Z,6.73
2023-01-30T21:11:47.895Z,6.80
2023-01-30T21:14:17.571Z,9.53
2023-01-30T21:16:47.725Z,6.13
2023-01-30T21:19:18.247Z,10.93
2023-01-30T21:21:50.650Z,6.57
2023-01-30T21:24:23.722Z,4.77
2023-01-30T21:26:53.018Z,7.10
2023-01-30T21:29:24.644Z,6.17
2023-01-30T21:31:55.500Z,5.67
2023-01-30T21:34:24.152Z,7.07
2023-01-30T21:37:06.252Z,6.23
2023-01-30T21:39:51.618Z,8.60
2023-01-30T21:42:37.827Z,9.00
2023-01-30T21:45:07.672Z,8.83
2023-01-30T21:47:37.342Z,6.27
2023-01-30T21:50:06.706Z,14.67
2023-01-30T21:52:34.980Z,5.73
2023-01-30T21:55:03.073Z,9.43
2023-01-30T21:57:31.317Z,7.40
2023-01-30T21:59:59.433Z,4.67
2023-01-30T22:02:27.591Z,7.57
2023-01-30T22:04:57.068Z,9.13
2023-01-30T22:07:25.189Z,6.73
2023-01-30T22:09:53.281Z,6.53
2023-01-30T22:12:21.440Z,7.23
2023-01-30T22:14:49.615Z,9.07
2023-01-30T22:17:17.799Z,9.37
2023-01-30T22:19:46.299Z,9.47
2023-01-30T22:22:15.854Z,10.33
2023-01-30T22:24:43.974Z,8.17
2023-01-30T22:27:12.228Z,7.00
2023-01-30T22:29:40.312Z,8.23
2023-01-30T22:32:08.481Z,8.47
2023-01-30T22:34:36.892Z,11.53
2023-01-30T22:37:05.115Z,8.83
2023-01-30T22:39:34.616Z,10.33
2023-01-30T22:42:02.762Z,6.13
2023-01-30T22:44:30.883Z,6.83
2023-01-30T22:46:59.036Z,8.30
2023-01-30T22:49:27.326Z,8.37
2023-01-30T22:51:55.503Z,12.67
2023-01-30T22:54:25.032Z,12.03
2023-01-30T22:56:54.948Z,7.37
2023-01-30T22:59:23.261Z,11.33
2023-01-30T23:01:52.069Z,13.97
2023-01-30T23:04:22.925Z,11.20
2023-01-30T23:06:52.329Z,11.87
2023-01-30T23:09:23.567Z,9.57
2023-01-30T23:12:13.219Z,8.50
2023-01-30T23:14:42.719Z,9.37
2023-01-30T23:17:28.191Z,11.37
2023-01-30T23:19:57.040Z,8.67
2023-01-30T23:22:25.565Z,8.50
2023-01-30T23:24:54.047Z,11.90
2023-01-30T23:27:23.621Z,13.63
2023-01-30T23:29:51.766Z,7.70
2023-01-30T23:32:20.135Z,9.97
2023-01-30T23:34:48.731Z,5.83
2023-01-30T23:37:17.313Z,6.23
2023-01-30T23:39:46.499Z,7.83
2023-01-30T23:42:14.674Z,8.60
2023-01-30T23:44:44.218Z,6.07
2023-01-30T23:47:12.341Z,8.47
2023-01-30T23:49:40.476Z,3.57
2023-01-30T23:52:11.166Z,8.47
2023-01-30T23:54:39.732Z,9.03
2023-01-30T23:57:07.912Z,7.30
2023-01-30T23:59:36.286Z,12.27
